createdAt,value
2018-08-20T00:00:10.721Z,1007.95
2018-08-20T00:01:10.748Z,1007.95
2018-08-20T00:02:10.778Z,1007.95
2018-08-20T00:03:10.807Z,1007.98
2018-08-20T00:04:10.825Z,1007.95
2018-08-20T00:05:10.852Z,1007.91
2018-08-20T00:06:10.884Z,1007.96
2018-08-20T00:07:10.907Z,1007.95
2018-08-20T00:08:10.960Z,1007.92
2018-08-20T00:09:10.948Z,1007.93
2018-08-20T00:10:10.986Z,1007.91
2018-08-20T00:11:11.008Z,1007.93
2018-08-20T00:12:11.035Z,1007.91
2018-08-20T00:14:11.087Z,1007.96
2018-08-20T00:15:11.115Z,1007.92
2018-08-20T00:16:11.136Z,1007.91
2018-08-20T00:17:11.155Z,1007.92
2018-08-20T00:18:11.191Z,1007.91
2018-08-20T00:19:11.211Z,1007.96
2018-08-20T00:20:11.248Z,1007.91
2018-08-20T00:21:11.349Z,1007.86
2018-08-20T00:23:11.345Z,1007.87
2018-08-20T00:24:11.344Z,1007.87
2018-08-20T00:26:11.398Z,1007.86
2018-08-20T00:27:11.413Z,1007.87
2018-08-20T00:29:11.476Z,1007.90
2018-08-20T00:30:11.512Z,1007.89
2018-08-20T00:31:11.538Z,1007.92
2018-08-20T00:32:32.573Z,1007.89
2018-08-20T00:33:11.576Z,1007.91
2018-08-20T00:34:11.599Z,1007.89
2018-08-20T00:35:11.637Z,1007.85
2018-08-20T00:36:11.655Z,1007.86
2018-08-20T00:37:11.677Z,1007.84
2018-08-20T00:38:11.711Z,1007.85
2018-08-20T00:39:11.728Z,1007.87
2018-08-20T00:40:11.767Z,1007.84
2018-08-20T00:41:11.781Z,1007.86
2018-08-20T00:42:11.806Z,1007.87
2018-08-20T00:43:11.854Z,1007.88
2018-08-20T00:44:11.855Z,1007.81
2018-08-20T00:45:11.879Z,1007.84
2018-08-20T00:46:11.913Z,1007.87
2018-08-20T00:47:11.938Z,1007.84
2018-08-20T00:48:11.959Z,1007.85
2018-08-20T00:49:12.008Z,1007.88
2018-08-20T00:50:12.008Z,1007.88
2018-08-20T00:51:12.547Z,1007.84
2018-08-20T00:52:12.075Z,1007.86
2018-08-20T00:53:12.086Z,1007.87
2018-08-20T00:54:12.133Z,1007.86
2018-08-20T00:55:12.145Z,1007.91
2018-08-20T00:56:12.165Z,1007.91
2018-08-20T00:57:12.843Z,1007.90
2018-08-20T00:58:12.278Z,1007.91
2018-08-20T00:59:12.280Z,1007.94
2018-08-20T01:00:12.266Z,1007.91
2018-08-20T01:01:12.293Z,1007.88
2018-08-20T01:03:12.344Z,1007.88
2018-08-20T01:04:12.368Z,1007.89
2018-08-20T01:05:12.398Z,1007.87
2018-08-20T01:06:12.425Z,1007.88
2018-08-20T01:07:12.451Z,1007.89
2018-08-20T01:08:12.473Z,1007.86
2018-08-20T01:09:12.496Z,1007.85
2018-08-20T01:10:12.540Z,1007.84
2018-08-20T01:11:14.540Z,1007.83
2018-08-20T01:12:12.569Z,1007.80
2018-08-20T01:13:12.608Z,1007.81
2018-08-20T01:14:12.620Z,1007.83
2018-08-20T01:15:12.689Z,1007.82
2018-08-20T01:16:12.672Z,1007.81
2018-08-20T01:17:12.706Z,1007.83
2018-08-20T01:18:12.724Z,1007.80
2018-08-20T01:19:12.757Z,1007.74
2018-08-20T01:20:12.790Z,1007.78
2018-08-20T01:21:12.806Z,1007.76
2018-08-20T01:22:12.840Z,1007.71
2018-08-20T01:23:12.866Z,1007.72
2018-08-20T01:24:12.879Z,1007.72
2018-08-20T01:25:12.904Z,1007.72
2018-08-20T01:27:12.972Z,1007.68
2018-08-20T01:28:12.994Z,1007.74
2018-08-20T01:29:13.006Z,1007.71
2018-08-20T01:30:13.030Z,1007.72
2018-08-20T01:31:13.087Z,1007.76
2018-08-20T01:32:13.080Z,1007.71
2018-08-20T01:33:13.112Z,1007.72
2018-08-20T01:34:13.127Z,1007.72
2018-08-20T01:35:13.164Z,1007.73
2018-08-20T01:36:13.190Z,1007.76
2018-08-20T01:37:13.209Z,1007.69
2018-08-20T01:38:13.240Z,1007.71
2018-08-20T01:39:13.370Z,1007.72
2018-08-20T01:40:13.294Z,1007.71
2018-08-20T01:41:13.321Z,1007.70
2018-08-20T01:42:13.364Z,1007.74
2018-08-20T01:43:13.406Z,1007.74
2018-08-20T01:44:13.390Z,1007.74
2018-08-20T01:45:13.416Z,1007.74
2018-08-20T01:46:13.458Z,1007.73
2018-08-20T01:47:13.486Z,1007.76
2018-08-20T01:48:13.701Z,1007.74
2018-08-20T01:49:13.509Z,1007.76
2018-08-20T01:50:13.539Z,1007.72
2018-08-20T01:51:13.564Z,1007.70
2018-08-20T01:52:13.674Z,1007.74
2018-08-20T01:53:13.645Z,1007.75
2018-08-20T01:54:13.640Z,1007.78
2018-08-20T01:55:13.692Z,1007.78
2018-08-20T01:56:13.710Z,1007.80
2018-08-20T01:57:13.714Z,1007.78
2018-08-20T01:58:13.774Z,1007.78
2018-08-20T01:59:13.772Z,1007.78
2018-08-20T02:00:13.830Z,1007.80
2018-08-20T02:01:13.841Z,1007.77
2018-08-20T02:02:13.834Z,1007.77
2018-08-20T02:03:13.860Z,1007.72
2018-08-20T02:04:13.914Z,1007.70
2018-08-20T02:05:13.914Z,1007.77
2018-08-20T02:06:13.938Z,1007.75
2018-08-20T02:07:13.973Z,1007.75
2018-08-20T02:08:13.990Z,1007.78
2018-08-20T02:09:14.020Z,1007.75
2018-08-20T02:10:14.041Z,1007.78
2018-08-20T02:11:14.065Z,1007.78
2018-08-20T02:13:14.318Z,1007.81
2018-08-20T02:14:14.141Z,1007.81
2018-08-20T02:16:14.215Z,1007.77
2018-08-20T02:17:14.210Z,1007.79
2018-08-20T02:18:14.693Z,1007.80
2018-08-20T02:19:14.270Z,1007.79
2018-08-20T02:20:14.304Z,1007.79
2018-08-20T02:21:14.314Z,1007.75
2018-08-20T02:22:14.347Z,1007.71
2018-08-20T02:23:14.983Z,1007.70
2018-08-20T02:24:14.505Z,1007.77
2018-08-20T02:25:14.427Z,1007.73
2018-08-20T02:26:14.441Z,1007.73
2018-08-20T02:27:14.474Z,1007.70
2018-08-20T02:28:14.494Z,1007.71
2018-08-20T02:29:14.769Z,1007.75
2018-08-20T02:30:14.773Z,1007.77
2018-08-20T02:31:14.569Z,1007.75
2018-08-20T02:32:14.779Z,1007.75
2018-08-20T02:33:14.801Z,1007.77
2018-08-20T02:34:14.647Z,1007.75
2018-08-20T02:35:14.873Z,1007.76
2018-08-20T02:36:14.726Z,1007.78
2018-08-20T02:37:14.713Z,1007.75
2018-08-20T02:38:14.744Z,1007.80
2018-08-20T02:39:14.803Z,1007.82
2018-08-20T02:40:15.401Z,1007.77
2018-08-20T02:41:14.820Z,1007.77
2018-08-20T02:42:14.839Z,1007.80
2018-08-20T02:43:14.865Z,1007.78
2018-08-20T02:44:14.893Z,1007.78
2018-08-20T02:45:14.915Z,1007.80
2018-08-20T02:46:14.967Z,1007.79
2018-08-20T02:47:14.985Z,1007.80
2018-08-20T02:48:15.081Z,1007.83
2018-08-20T02:49:15.016Z,1007.78
2018-08-20T02:50:15.038Z,1007.82
2018-08-20T02:51:15.066Z,1007.82
2018-08-20T02:52:15.109Z,1007.78
2018-08-20T02:53:15.117Z,1007.83
2018-08-20T02:54:15.136Z,1007.88
2018-08-20T02:55:15.167Z,1007.82
2018-08-20T02:56:15.187Z,1007.79
2018-08-20T02:57:15.213Z,1007.83
2018-08-20T02:58:15.235Z,1007.83
2018-08-20T02:59:15.259Z,1007.81
2018-08-20T03:00:15.279Z,1007.78
2018-08-20T03:01:15.316Z,1007.77
2018-08-20T03:02:15.337Z,1007.79
2018-08-20T03:03:15.366Z,1007.83
2018-08-20T03:04:15.389Z,1007.79
2018-08-20T03:05:15.829Z,1007.80
2018-08-20T03:06:15.437Z,1007.82
2018-08-20T03:07:15.791Z,1007.83
2018-08-20T03:08:15.479Z,1007.83
2018-08-20T03:09:15.505Z,1007.81
2018-08-20T03:10:15.674Z,1007.81
2018-08-20T03:11:15.558Z,1007.81
2018-08-20T03:12:15.593Z,1007.80
2018-08-20T03:13:15.608Z,1007.83
2018-08-20T03:14:15.632Z,1007.84
2018-08-20T03:15:15.658Z,1007.79
2018-08-20T03:16:15.682Z,1007.81
2018-08-20T03:17:15.842Z,1007.83
2018-08-20T03:18:15.738Z,1007.83
2018-08-20T03:19:15.749Z,1007.80
2018-08-20T03:20:15.777Z,1007.81
2018-08-20T03:21:15.802Z,1007.78
2018-08-20T03:22:15.830Z,1007.80
2018-08-20T03:23:15.859Z,1007.81
2018-08-20T03:24:15.880Z,1007.80
2018-08-20T03:25:15.898Z,1007.75
2018-08-20T03:26:15.929Z,1007.77
2018-08-20T03:27:15.966Z,1007.79
2018-08-20T03:28:15.974Z,1007.78
2018-08-20T03:29:16.000Z,1007.75
2018-08-20T03:30:16.030Z,1007.75
2018-08-20T03:31:16.050Z,1007.75
2018-08-20T03:32:16.073Z,1007.75
2018-08-20T03:34:16.127Z,1007.75
2018-08-20T03:35:16.149Z,1007.72
2018-08-20T03:36:16.188Z,1007.76
2018-08-20T03:37:16.199Z,1007.75
2018-08-20T03:38:16.221Z,1007.76
2018-08-20T03:39:16.247Z,1007.69
2018-08-20T03:40:16.272Z,1007.70
2018-08-20T03:41:16.291Z,1007.69
2018-08-20T03:42:16.318Z,1007.72
2018-08-20T03:43:16.349Z,1007.72
2018-08-20T03:44:16.370Z,1007.70
2018-08-20T03:45:16.391Z,1007.73
2018-08-20T03:46:16.428Z,1007.76
2018-08-20T03:47:16.441Z,1007.73
2018-08-20T03:48:16.857Z,1007.74
2018-08-20T03:49:16.486Z,1007.72
2018-08-20T03:50:16.515Z,1007.75
2018-08-20T03:51:16.590Z,1007.74
2018-08-20T03:52:16.561Z,1007.73
2018-08-20T03:53:16.604Z,1007.77
2018-08-20T03:54:16.624Z,1007.76
2018-08-20T03:55:16.635Z,1007.76
2018-08-20T03:56:16.654Z,1007.74
2018-08-20T03:57:16.885Z,1007.70
2018-08-20T03:58:16.714Z,1007.68
2018-08-20T03:59:16.881Z,1007.73
2018-08-20T04:00:16.759Z,1007.72
2018-08-20T04:01:16.827Z,1007.73
2018-08-20T04:02:16.805Z,1007.71
2018-08-20T04:03:16.890Z,1007.69
2018-08-20T04:04:16.860Z,1007.72
2018-08-20T04:06:16.924Z,1007.67
2018-08-20T04:07:16.940Z,1007.67
2018-08-20T04:08:16.950Z,1007.63
2018-08-20T04:09:16.974Z,1007.61
2018-08-20T04:10:17.006Z,1007.62
2018-08-20T04:11:17.023Z,1007.61
2018-08-20T04:12:17.053Z,1007.60
2018-08-20T04:13:17.080Z,1007.57
2018-08-20T04:14:17.124Z,1007.57
2018-08-20T04:15:17.117Z,1007.58
2018-08-20T04:16:17.145Z,1007.61
2018-08-20T04:17:17.176Z,1007.58
2018-08-20T04:18:17.202Z,1007.55
2018-08-20T04:19:17.215Z,1007.58
2018-08-20T04:20:17.238Z,1007.58
2018-08-20T04:21:17.321Z,1007.59
2018-08-20T04:22:17.943Z,1007.61
2018-08-20T04:23:17.428Z,1007.59
2018-08-20T04:24:17.455Z,1007.60
2018-08-20T04:25:17.373Z,1007.61
2018-08-20T04:26:17.387Z,1007.62
2018-08-20T04:27:17.412Z,1007.61
2018-08-20T04:28:17.570Z,1007.61
2018-08-20T04:29:17.660Z,1007.64
2018-08-20T04:30:17.490Z,1007.65
2018-08-20T04:31:17.633Z,1007.66
2018-08-20T04:32:17.533Z,1007.62
2018-08-20T04:33:17.948Z,1007.65
2018-08-20T04:34:17.942Z,1007.66
2018-08-20T04:35:17.786Z,1007.64
2018-08-20T04:36:17.661Z,1007.65
2018-08-20T04:37:17.660Z,1007.61
2018-08-20T04:38:17.681Z,1007.58
2018-08-20T04:39:17.698Z,1007.62
2018-08-20T04:40:17.731Z,1007.63
2018-08-20T04:41:17.753Z,1007.62
2018-08-20T04:42:17.873Z,1007.65
2018-08-20T04:44:17.872Z,1007.62
2018-08-20T04:46:17.872Z,1007.56
2018-08-20T04:47:17.889Z,1007.57
2018-08-20T04:48:17.922Z,1007.51
2018-08-20T04:49:17.946Z,1007.52
2018-08-20T04:50:18.176Z,1007.55
2018-08-20T04:51:18.187Z,1007.60
2018-08-20T04:52:18.169Z,1007.61
2018-08-20T04:53:18.043Z,1007.61
2018-08-20T04:54:18.153Z,1007.62
2018-08-20T04:55:18.096Z,1007.64
2018-08-20T04:56:18.248Z,1007.66
2018-08-20T04:57:18.135Z,1007.71
2018-08-20T04:58:18.336Z,1007.69
2018-08-20T04:59:18.348Z,1007.72
2018-08-20T05:00:18.366Z,1007.69
2018-08-20T05:01:18.413Z,1007.72
2018-08-20T05:02:18.441Z,1007.68
2018-08-20T05:03:18.472Z,1007.68
2018-08-20T05:04:18.508Z,1007.68
2018-08-20T05:05:18.497Z,1007.68
2018-08-20T05:06:18.355Z,1007.65
2018-08-20T05:07:18.557Z,1007.67
2018-08-20T05:08:18.408Z,1007.69
2018-08-20T05:09:18.521Z,1007.73
2018-08-20T05:10:18.456Z,1007.77
2018-08-20T05:11:18.561Z,1007.77
2018-08-20T05:12:18.507Z,1007.75
2018-08-20T05:13:18.555Z,1007.71
2018-08-20T05:14:18.736Z,1007.74
2018-08-20T05:15:18.576Z,1007.72
2018-08-20T05:16:18.595Z,1007.73
2018-08-20T05:17:18.625Z,1007.73
2018-08-20T05:18:18.656Z,1007.74
2018-08-20T05:19:18.705Z,1007.75
2018-08-20T05:20:18.707Z,1007.78
2018-08-20T05:21:18.721Z,1007.77
2018-08-20T05:22:18.748Z,1007.78
2018-08-20T05:23:18.777Z,1007.80
2018-08-20T05:25:18.822Z,1007.76
2018-08-20T05:26:18.844Z,1007.79
2018-08-20T05:27:18.870Z,1007.78
2018-08-20T05:28:18.893Z,1007.78
2018-08-20T05:29:18.927Z,1007.78
2018-08-20T05:30:18.943Z,1007.79
2018-08-20T05:31:18.966Z,1007.79
2018-08-20T05:32:19.023Z,1007.82
2018-08-20T05:33:19.056Z,1007.77
2018-08-20T05:34:19.041Z,1007.77
2018-08-20T05:36:19.088Z,1007.78
2018-08-20T05:37:19.117Z,1007.79
2018-08-20T05:38:19.170Z,1007.81
2018-08-20T05:39:19.184Z,1007.82
2018-08-20T05:40:19.188Z,1007.85
2018-08-20T05:41:19.207Z,1007.84
2018-08-20T05:42:19.234Z,1007.87
2018-08-20T05:43:19.260Z,1007.82
2018-08-20T05:44:19.298Z,1007.84
2018-08-20T05:45:19.320Z,1007.87
2018-08-20T05:46:19.337Z,1007.87
2018-08-20T05:47:19.356Z,1007.86
2018-08-20T05:48:19.389Z,1007.87
2018-08-20T05:49:19.406Z,1007.89
2018-08-20T05:50:19.436Z,1007.89
2018-08-20T05:51:19.462Z,1007.90
2018-08-20T05:52:19.491Z,1007.92
2018-08-20T05:53:19.511Z,1007.89
2018-08-20T05:54:19.529Z,1007.91
2018-08-20T05:55:19.552Z,1007.88
2018-08-20T05:56:19.575Z,1007.92
2018-08-20T05:57:19.595Z,1007.93
2018-08-20T05:58:19.622Z,1007.90
2018-08-20T05:59:19.662Z,1007.90
2018-08-20T06:00:19.669Z,1007.89
2018-08-20T06:01:19.703Z,1007.91
2018-08-20T06:02:19.716Z,1007.91
2018-08-20T06:03:19.749Z,1007.94
2018-08-20T06:04:19.775Z,1007.96
2018-08-20T06:05:19.801Z,1007.96
2018-08-20T06:06:19.820Z,1007.99
2018-08-20T06:07:19.844Z,1007.99
2018-08-20T06:08:19.868Z,1007.95
2018-08-20T06:09:19.893Z,1007.98
2018-08-20T06:10:19.914Z,1007.96
2018-08-20T06:11:19.945Z,1007.97
2018-08-20T06:12:19.967Z,1007.95
2018-08-20T06:13:19.992Z,1007.99
2018-08-20T06:14:20.019Z,1007.99
2018-08-20T06:15:20.062Z,1007.98
2018-08-20T06:16:20.101Z,1008.00
2018-08-20T06:17:20.089Z,1007.98
2018-08-20T06:18:20.116Z,1007.97
2018-08-20T06:19:20.141Z,1008.04
2018-08-20T06:20:20.170Z,1007.99
2018-08-20T06:21:20.189Z,1008.02
2018-08-20T06:22:20.233Z,1008.05
2018-08-20T06:23:20.235Z,1008.04
2018-08-20T06:24:20.264Z,1008.04
2018-08-20T06:25:20.287Z,1008.05
2018-08-20T06:26:20.309Z,1008.05
2018-08-20T06:27:20.337Z,1008.13
2018-08-20T06:28:20.362Z,1008.09
2018-08-20T06:29:20.395Z,1008.14
2018-08-20T06:30:20.412Z,1008.16
2018-08-20T06:31:20.475Z,1008.18
2018-08-20T06:32:20.469Z,1008.18
2018-08-20T06:33:20.485Z,1008.18
2018-08-20T06:34:20.507Z,1008.21
2018-08-20T06:35:20.529Z,1008.24
2018-08-20T06:36:20.558Z,1008.20
2018-08-20T06:37:20.582Z,1008.23
2018-08-20T06:38:20.601Z,1008.25
2018-08-20T06:39:20.643Z,1008.26
2018-08-20T06:40:20.660Z,1008.28
2018-08-20T06:41:20.683Z,1008.28
2018-08-20T06:42:20.709Z,1008.33
2018-08-20T06:43:20.730Z,1008.33
2018-08-20T06:44:20.754Z,1008.34
2018-08-20T06:45:20.781Z,1008.36
2018-08-20T06:46:20.810Z,1008.35
2018-08-20T06:47:20.829Z,1008.36
2018-08-20T06:48:20.867Z,1008.40
2018-08-20T06:49:20.880Z,1008.37
2018-08-20T06:50:20.912Z,1008.39
2018-08-20T06:51:20.980Z,1008.37
2018-08-20T06:52:20.951Z,1008.39
2018-08-20T06:53:20.983Z,1008.41
2018-08-20T06:54:21.033Z,1008.39
2018-08-20T06:55:21.027Z,1008.38
2018-08-20T06:56:21.057Z,1008.44
2018-08-20T06:57:21.089Z,1008.43
2018-08-20T06:58:21.108Z,1008.43
2018-08-20T06:59:21.133Z,1008.45
2018-08-20T07:00:21.162Z,1008.46
2018-08-20T07:02:21.204Z,1008.43
2018-08-20T07:03:21.231Z,1008.41
2018-08-20T07:04:21.252Z,1008.45
2018-08-20T07:05:21.279Z,1008.44
2018-08-20T07:06:21.394Z,1008.44
2018-08-20T07:07:21.356Z,1008.45
2018-08-20T07:08:21.359Z,1008.44
2018-08-20T07:09:21.378Z,1008.43
2018-08-20T07:10:21.416Z,1008.43
2018-08-20T07:11:21.427Z,1008.44
2018-08-20T07:12:21.453Z,1008.45
2018-08-20T07:13:21.474Z,1008.41
2018-08-20T07:14:21.512Z,1008.44
2018-08-20T07:15:21.531Z,1008.42
2018-08-20T07:16:21.561Z,1008.44
2018-08-20T07:17:21.593Z,1008.45
2018-08-20T07:18:21.605Z,1008.49
2018-08-20T07:19:21.646Z,1008.47
2018-08-20T07:20:21.654Z,1008.52
2018-08-20T07:21:21.691Z,1008.57
2018-08-20T07:22:21.716Z,1008.55
2018-08-20T07:23:21.749Z,1008.60
2018-08-20T07:24:21.757Z,1008.62
2018-08-20T07:25:21.782Z,1008.63
2018-08-20T07:26:21.806Z,1008.60
2018-08-20T07:27:21.834Z,1008.61
2018-08-20T07:28:21.862Z,1008.64
2018-08-20T07:29:21.881Z,1008.67
2018-08-20T07:30:21.915Z,1008.60
2018-08-20T07:31:21.930Z,1008.60
2018-08-20T07:32:21.970Z,1008.62
2018-08-20T07:33:21.980Z,1008.63
2018-08-20T07:34:22.023Z,1008.59
2018-08-20T07:35:22.037Z,1008.59
2018-08-20T07:36:22.063Z,1008.60
2018-08-20T07:38:22.106Z,1008.62
2018-08-20T07:39:22.133Z,1008.61
2018-08-20T07:40:22.173Z,1008.61
2018-08-20T07:41:22.203Z,1008.62
2018-08-20T07:42:22.264Z,1008.64
2018-08-20T07:43:22.238Z,1008.68
2018-08-20T07:44:22.323Z,1008.65
2018-08-20T07:45:22.295Z,1008.67
2018-08-20T07:46:23.044Z,1008.69
2018-08-20T07:47:22.339Z,1008.73
2018-08-20T07:48:22.367Z,1008.74
2018-08-20T07:49:22.392Z,1008.70
2018-08-20T07:50:22.421Z,1008.68
2018-08-20T07:51:22.440Z,1008.71
2018-08-20T07:52:22.472Z,1008.70
2018-08-20T07:53:22.502Z,1008.67
2018-08-20T07:54:22.520Z,1008.68
2018-08-20T07:55:22.542Z,1008.63
2018-08-20T07:56:22.586Z,1008.64
2018-08-20T07:57:22.598Z,1008.62
2018-08-20T07:58:22.622Z,1008.67
2018-08-20T07:59:22.648Z,1008.64
2018-08-20T08:00:22.680Z,1008.66
2018-08-20T08:01:22.702Z,1008.63
2018-08-20T08:02:22.722Z,1008.67
2018-08-20T08:03:22.758Z,1008.64
2018-08-20T08:04:22.780Z,1008.68
2018-08-20T08:05:22.801Z,1008.63
2018-08-20T08:06:22.830Z,1008.67
2018-08-20T08:07:22.855Z,1008.67
2018-08-20T08:08:22.887Z,1008.69
2018-08-20T08:09:22.903Z,1008.68
2018-08-20T08:10:22.945Z,1008.67
2018-08-20T08:11:22.958Z,1008.69
2018-08-20T08:12:22.982Z,1008.71
2018-08-20T08:14:23.041Z,1008.71
2018-08-20T08:15:23.062Z,1008.71
2018-08-20T08:17:23.110Z,1008.73
2018-08-20T08:18:23.145Z,1008.74
2018-08-20T08:19:23.164Z,1008.76
2018-08-20T08:20:23.189Z,1008.77
2018-08-20T08:21:23.217Z,1008.76
2018-08-20T08:22:23.266Z,1008.81
2018-08-20T08:23:23.286Z,1008.78
2018-08-20T08:24:23.310Z,1008.77
2018-08-20T08:25:23.334Z,1008.76
2018-08-20T08:26:23.359Z,1008.79
2018-08-20T08:27:23.374Z,1008.76
2018-08-20T08:28:23.399Z,1008.77
2018-08-20T08:29:23.426Z,1008.72
2018-08-20T08:30:23.474Z,1008.71
2018-08-20T08:31:23.480Z,1008.76
2018-08-20T08:32:23.504Z,1008.70
2018-08-20T08:33:23.527Z,1008.68
2018-08-20T08:34:23.556Z,1008.71
2018-08-20T08:35:23.595Z,1008.65
2018-08-20T08:36:23.615Z,1008.66
2018-08-20T08:37:23.648Z,1008.67
2018-08-20T08:39:23.686Z,1008.67
2018-08-20T08:40:23.714Z,1008.63
2018-08-20T08:41:23.739Z,1008.69
2018-08-20T08:42:23.769Z,1008.62
2018-08-20T08:43:23.833Z,1008.61
2018-08-20T08:44:23.829Z,1008.60
2018-08-20T08:45:23.860Z,1008.64
2018-08-20T08:46:23.882Z,1008.57
2018-08-20T08:48:23.926Z,1008.60
2018-08-20T08:49:23.946Z,1008.63
2018-08-20T08:51:24.019Z,1008.65
2018-08-20T08:52:24.033Z,1008.61
2018-08-20T08:53:24.055Z,1008.62
2018-08-20T08:54:24.089Z,1008.62
2018-08-20T08:55:24.118Z,1008.61
2018-08-20T08:56:24.135Z,1008.60
2018-08-20T08:57:24.167Z,1008.61
2018-08-20T08:58:24.184Z,1008.60
2018-08-20T08:59:24.241Z,1008.63
2018-08-20T09:00:24.267Z,1008.60
2018-08-20T09:01:24.265Z,1008.62
2018-08-20T09:02:24.301Z,1008.66
2018-08-20T09:03:24.318Z,1008.65
2018-08-20T09:04:24.345Z,1008.59
2018-08-20T09:05:24.379Z,1008.57
2018-08-20T09:06:24.408Z,1008.63
2018-08-20T09:07:24.430Z,1008.56
2018-08-20T09:08:24.455Z,1008.58
2018-08-20T09:09:24.488Z,1008.63
2018-08-20T09:10:24.517Z,1008.62
2018-08-20T09:11:24.535Z,1008.58
2018-08-20T09:12:24.566Z,1008.65
2018-08-20T09:13:24.593Z,1008.64
2018-08-20T09:14:24.617Z,1008.60
2018-08-20T09:15:24.650Z,1008.63
2018-08-20T09:16:24.670Z,1008.65
2018-08-20T09:17:24.698Z,1008.60
2018-08-20T09:18:24.736Z,1008.59
2018-08-20T09:19:24.774Z,1008.61
2018-08-20T09:20:24.799Z,1008.60
2018-08-20T09:21:24.805Z,1008.59
2018-08-20T09:22:24.876Z,1008.56
2018-08-20T09:23:45.880Z,1008.57
2018-08-20T09:24:24.890Z,1008.56
2018-08-20T09:25:24.912Z,1008.58
2018-08-20T09:26:24.946Z,1008.59
2018-08-20T09:27:24.965Z,1008.58
2018-08-20T09:28:25.018Z,1008.54
2018-08-20T09:29:25.021Z,1008.55
2018-08-20T09:30:25.090Z,1008.56
2018-08-20T09:31:25.079Z,1008.57
2018-08-20T09:32:25.192Z,1008.53
2018-08-20T09:33:25.129Z,1008.56
2018-08-20T09:34:25.158Z,1008.55
2018-08-20T09:35:25.225Z,1008.59
2018-08-20T09:36:25.208Z,1008.55
2018-08-20T09:37:25.238Z,1008.53
2018-08-20T09:38:25.313Z,1008.58
2018-08-20T09:39:25.292Z,1008.54
2018-08-20T09:40:25.327Z,1008.55
2018-08-20T09:41:25.341Z,1008.54
2018-08-20T09:42:25.365Z,1008.49
2018-08-20T09:43:25.390Z,1008.49
2018-08-20T09:44:25.428Z,1008.49
2018-08-20T09:45:25.454Z,1008.47
2018-08-20T09:46:25.481Z,1008.50
2018-08-20T09:47:25.506Z,1008.45
2018-08-20T09:48:25.534Z,1008.43
2018-08-20T09:49:25.574Z,1008.43
2018-08-20T09:50:25.596Z,1008.45
2018-08-20T09:51:25.615Z,1008.43
2018-08-20T09:52:25.641Z,1008.45
2018-08-20T09:53:25.725Z,1008.39
2018-08-20T09:54:25.693Z,1008.44
2018-08-20T09:55:25.725Z,1008.44
2018-08-20T09:56:25.773Z,1008.41
2018-08-20T09:57:25.849Z,1008.42
2018-08-20T09:58:25.816Z,1008.39
2018-08-20T09:59:25.831Z,1008.41
2018-08-20T10:00:25.855Z,1008.42
2018-08-20T10:01:25.917Z,1008.35
2018-08-20T10:02:25.911Z,1008.42
2018-08-20T10:03:25.943Z,1008.32
2018-08-20T10:04:25.971Z,1008.37
2018-08-20T10:05:25.998Z,1008.36
2018-08-20T10:06:26.038Z,1008.38
2018-08-20T10:07:26.067Z,1008.35
2018-08-20T10:08:26.079Z,1008.36
2018-08-20T10:09:26.132Z,1008.34
2018-08-20T10:10:26.141Z,1008.39
2018-08-20T10:11:26.168Z,1008.39
2018-08-20T10:12:26.198Z,1008.34
2018-08-20T10:13:26.220Z,1008.29
2018-08-20T10:14:26.257Z,1008.30
2018-08-20T10:15:26.275Z,1008.29
2018-08-20T10:16:26.319Z,1008.28
2018-08-20T10:17:26.334Z,1008.27
2018-08-20T10:18:26.363Z,1008.25
2018-08-20T10:20:26.410Z,1008.13
2018-08-20T10:21:26.450Z,1008.24
2018-08-20T10:22:26.467Z,1008.18
2018-08-20T10:23:26.534Z,1008.21
2018-08-20T10:24:26.527Z,1008.21
2018-08-20T10:25:26.549Z,1008.21
2018-08-20T10:26:26.583Z,1008.21
2018-08-20T10:27:26.602Z,1008.18
2018-08-20T10:28:26.634Z,1008.18
2018-08-20T10:29:26.661Z,1008.18
2018-08-20T10:30:26.695Z,1008.14
2018-08-20T10:31:26.710Z,1008.15
2018-08-20T10:32:26.747Z,1008.12
2018-08-20T10:33:26.780Z,1008.12
2018-08-20T10:34:26.793Z,1008.12
2018-08-20T10:35:26.823Z,1008.08
2018-08-20T10:36:26.852Z,1008.07
2018-08-20T10:37:26.891Z,1008.08
2018-08-20T10:38:26.912Z,1008.11
2018-08-20T10:39:26.930Z,1008.11
2018-08-20T10:40:26.990Z,1008.09
2018-08-20T10:41:26.988Z,1008.08
2018-08-20T10:42:27.028Z,1008.06
2018-08-20T10:43:27.046Z,1008.06
2018-08-20T10:44:27.117Z,1008.05
2018-08-20T10:45:27.101Z,1007.98
2018-08-20T10:46:27.127Z,1008.03
2018-08-20T10:47:27.161Z,1008.04
2018-08-20T10:48:27.183Z,1008.00
2018-08-20T10:49:27.214Z,1008.06
2018-08-20T10:50:27.233Z,1008.04
2018-08-20T10:51:27.263Z,1008.03
2018-08-20T10:52:27.289Z,1008.01
2018-08-20T10:53:27.324Z,1008.01
2018-08-20T10:54:27.362Z,1007.96
2018-08-20T10:55:27.373Z,1007.94
2018-08-20T10:56:27.492Z,1007.96
2018-08-20T10:57:27.431Z,1007.99
2018-08-20T10:58:27.465Z,1007.92
2018-08-20T10:59:27.491Z,1007.96
2018-08-20T11:00:27.516Z,1008.03
2018-08-20T11:01:27.542Z,1008.02
2018-08-20T11:02:27.583Z,1007.96
2018-08-20T11:03:27.596Z,1007.98
2018-08-20T11:04:27.621Z,1007.94
2018-08-20T11:05:27.650Z,1007.94
2018-08-20T11:06:27.688Z,1007.90
2018-08-20T11:07:27.709Z,1007.89
2018-08-20T11:08:27.773Z,1007.86
2018-08-20T11:09:27.771Z,1007.85
2018-08-20T11:10:27.794Z,1007.86
2018-08-20T11:11:27.820Z,1007.85
2018-08-20T11:12:27.851Z,1007.84
2018-08-20T11:13:27.881Z,1007.87
2018-08-20T11:14:27.908Z,1007.86
2018-08-20T11:15:27.928Z,1007.86
2018-08-20T11:16:27.965Z,1007.85
2018-08-20T11:17:27.999Z,1007.88
2018-08-20T11:18:28.089Z,1007.87
2018-08-20T11:19:28.048Z,1007.94
2018-08-20T11:20:28.081Z,1007.86
2018-08-20T11:21:28.101Z,1007.90
2018-08-20T11:22:28.142Z,1007.92
2018-08-20T11:23:28.161Z,1007.87
2018-08-20T11:24:28.191Z,1007.89
2018-08-20T11:25:28.214Z,1007.87
2018-08-20T11:26:28.245Z,1007.89
2018-08-20T11:27:28.277Z,1007.85
2018-08-20T11:28:28.307Z,1007.85
2018-08-20T11:29:28.329Z,1007.91
2018-08-20T11:30:28.357Z,1007.87
2018-08-20T11:31:28.381Z,1007.80
2018-08-20T11:32:28.433Z,1007.79
2018-08-20T11:33:28.437Z,1007.76
2018-08-20T11:34:28.471Z,1007.76
2018-08-20T11:35:28.501Z,1007.79
2018-08-20T11:36:28.578Z,1007.80
2018-08-20T11:37:28.560Z,1007.76
2018-08-20T11:38:28.589Z,1007.77
2018-08-20T11:39:28.619Z,1007.85
2018-08-20T11:40:28.647Z,1007.78
2018-08-20T11:41:28.666Z,1007.82
2018-08-20T11:42:28.697Z,1007.80
2018-08-20T11:43:28.789Z,1007.80
2018-08-20T11:44:28.756Z,1007.74
2018-08-20T11:45:28.792Z,1007.73
2018-08-20T11:46:28.812Z,1007.70
2018-08-20T11:47:28.857Z,1007.76
2018-08-20T11:48:28.878Z,1007.75
2018-08-20T11:49:28.894Z,1007.77
2018-08-20T11:50:28.918Z,1007.80
2018-08-20T11:51:28.965Z,1007.83
2018-08-20T11:52:28.983Z,1007.75
2018-08-20T11:53:29.011Z,1007.71
2018-08-20T11:54:29.083Z,1007.72
2018-08-20T11:55:29.070Z,1007.71
2018-08-20T11:56:29.100Z,1007.65
2018-08-20T11:57:29.122Z,1007.64
2018-08-20T11:58:29.172Z,1007.63
2018-08-20T11:59:29.192Z,1007.61
2018-08-20T12:00:29.224Z,1007.61
2018-08-20T12:01:29.244Z,1007.60
2018-08-20T12:02:29.272Z,1007.63
2018-08-20T12:03:29.294Z,1007.58
2018-08-20T12:04:29.328Z,1007.61
2018-08-20T12:05:29.387Z,1007.54
2018-08-20T12:06:29.398Z,1007.62
2018-08-20T12:07:29.492Z,1007.54
2018-08-20T12:08:29.441Z,1007.55
2018-08-20T12:09:29.471Z,1007.59
2018-08-20T12:10:29.505Z,1007.56
2018-08-20T12:11:29.537Z,1007.56
2018-08-20T12:12:29.560Z,1007.52
2018-08-20T12:13:29.616Z,1007.55
2018-08-20T12:14:29.622Z,1007.52
2018-08-20T12:15:29.651Z,1007.51
2018-08-20T12:17:29.720Z,1007.47
2018-08-20T12:18:29.742Z,1007.54
2018-08-20T12:19:29.768Z,1007.51
2018-08-20T12:20:29.797Z,1007.56
2018-08-20T12:21:29.833Z,1007.58
2018-08-20T12:22:29.955Z,1007.50
2018-08-20T12:23:29.894Z,1007.52
2018-08-20T12:24:29.939Z,1007.48
2018-08-20T12:25:29.951Z,1007.50
2018-08-20T12:26:29.969Z,1007.45
2018-08-20T12:27:30.004Z,1007.42
2018-08-20T12:28:30.034Z,1007.39